createdAt,value
2023-04-25T00:02:20.424Z,5.18
2023-04-25T00:07:22.524Z,5.45
2023-04-25T00:12:24.533Z,5.30
2023-04-25T00:17:27.795Z,5.25
2023-04-25T00:22:29.905Z,5.22
2023-04-25T00:27:31.964Z,5.40
2023-04-25T00:32:34.068Z,5.53
2023-04-25T00:37:36.780Z,5.68
2023-04-25T00:42:38.925Z,5.63
2023-04-25T00:47:41.419Z,5.70
2023-04-25T00:52:45.621Z,5.43
2023-04-25T00:57:47.911Z,5.25
2023-04-25T01:02:51.307Z,5.90
2023-04-25T01:07:53.505Z,5.60
2023-04-25T01:12:55.701Z,5.35
2023-04-25T01:17:59.277Z,7.18
2023-04-25T01:23:03.257Z,5.15
2023-04-25T01:28:06.039Z,5.85
2023-04-25T01:33:09.379Z,5.78
2023-04-25T01:38:13.078Z,5.10
2023-04-25T01:43:15.567Z,5.70
2023-04-25T01:48:17.760Z,5.40
2023-04-25T01:53:19.961Z,5.47
2023-04-25T01:58:22.766Z,5.97
2023-04-25T02:03:44.126Z,5.70
2023-04-25T02:08:55.456Z,6.25
2023-04-25T02:13:58.100Z,5.63
2023-04-25T02:19:12.922Z,6.00
2023-04-25T02:24:15.522Z,5.85
2023-04-25T02:29:17.592Z,6.75
2023-04-25T02:34:19.951Z,5.80
2023-04-25T02:39:23.156Z,6.40
2023-04-25T02:44:25.276Z,5.82
2023-04-25T02:49:27.323Z,5.47
2023-04-25T02:54:29.629Z,5.78
2023-04-25T02:59:32.805Z,5.50
2023-04-25T03:04:34.891Z,6.00
2023-04-25T03:09:37.275Z,6.32
2023-04-25T03:14:39.618Z,6.20
2023-04-25T03:19:41.768Z,6.22
2023-04-25T03:24:43.853Z,5.57
2023-04-25T03:29:45.919Z,6.05
2023-04-25T03:34:48.335Z,6.05
2023-04-25T03:39:50.555Z,6.03
2023-04-25T03:44:53.565Z,5.47
2023-04-25T03:49:56.667Z,6.50
2023-04-25T03:55:00.924Z,5.63
2023-04-25T04:00:05.765Z,6.57
2023-04-25T04:05:15.538Z,5.70
2023-04-25T04:10:24.679Z,6.95
2023-04-25T04:15:26.749Z,6.78
2023-04-25T04:20:33.875Z,6.45
2023-04-25T04:25:36.504Z,6.13
2023-04-25T04:30:49.076Z,6.13
2023-04-25T04:35:53.246Z,4.72
2023-04-25T04:40:56.757Z,5.50
2023-04-25T04:46:19.364Z,5.57
2023-04-25T04:51:48.419Z,4.63
2023-04-25T04:57:09.281Z,4.07
2023-04-25T05:02:19.151Z,3.83
2023-04-25T05:07:32.933Z,3.88
2023-04-25T05:12:46.016Z,2.88
2023-04-25T05:18:17.716Z,2.75
2023-04-25T05:23:36.187Z,2.58
2023-04-25T05:29:01.394Z,3.13
2023-04-25T05:34:42.928Z,2.35
2023-04-25T05:39:54.210Z,3.10
2023-04-25T05:45:14.925Z,2.60
2023-04-25T05:50:45.964Z,2.93
2023-04-25T05:56:09.379Z,2.85
2023-04-25T06:01:13.601Z,2.45
2023-04-25T06:06:15.855Z,3.38
2023-04-25T06:11:18.037Z,2.90
2023-04-25T06:16:20.409Z,2.63
2023-04-25T06:21:22.463Z,2.78
2023-04-25T06:26:26.903Z,3.00
2023-04-25T06:31:30.026Z,3.33
2023-04-25T06:36:32.673Z,3.03
2023-04-25T06:41:40.817Z,2.78
2023-04-25T06:46:50.796Z,2.83
2023-04-25T06:51:53.041Z,2.42
2023-04-25T06:56:55.555Z,2.95
2023-04-25T07:01:57.841Z,2.60
2023-04-25T07:07:03.653Z,2.28
2023-04-25T07:12:27.644Z,2.22
2023-04-25T07:17:29.853Z,2.55
2023-04-25T07:22:33.456Z,2.58
2023-04-25T07:27:35.544Z,2.28
2023-04-25T07:32:44.048Z,2.25
2023-04-25T07:37:46.079Z,2.15
2023-04-25T07:42:51.229Z,2.10
2023-04-25T07:47:59.861Z,1.65
2023-04-25T07:53:02.963Z,1.88
2023-04-25T07:58:12.783Z,1.83
2023-04-25T08:03:17.265Z,1.58
2023-04-25T08:08:20.161Z,1.40
2023-04-25T08:13:23.066Z,16.90
2023-04-25T08:18:25.431Z,1.73
2023-04-25T08:23:28.919Z,1.70
2023-04-25T08:28:47.502Z,1.75
2023-04-25T08:33:50.466Z,1.73
2023-04-25T08:39:08.865Z,1.58
2023-04-25T08:44:27.377Z,1.38
2023-04-25T08:49:30.521Z,1.73
2023-04-25T08:54:35.338Z,1.55
2023-04-25T08:59:44.027Z,2.00
2023-04-25T09:04:46.357Z,4.00
2023-04-25T09:09:49.406Z,1.55
2023-04-25T09:15:08.625Z,1.60
2023-04-25T09:20:56.370Z,1.73
2023-04-25T09:26:03.782Z,1.30
2023-04-25T09:31:06.303Z,1.55
2023-04-25T09:36:14.163Z,1.25
2023-04-25T09:41:39.495Z,1.50
2023-04-25T09:46:42.374Z,1.08
2023-04-25T09:51:59.901Z,1.20
2023-04-25T09:57:12.504Z,1.55
2023-04-25T10:02:17.949Z,1.23
2023-04-25T10:07:26.647Z,5.97
2023-04-25T10:12:29.182Z,1.02
2023-04-25T10:17:32.640Z,1.40
2023-04-25T10:22:45.841Z,1.38
2023-04-25T10:27:47.924Z,1.10
2023-04-25T10:32:51.536Z,1.45
2023-04-25T10:38:14.599Z,1.55
2023-04-25T10:43:32.083Z,1.23
2023-04-25T10:48:35.580Z,1.05
2023-04-25T10:53:38.315Z,1.02
2023-04-25T10:58:44.713Z,1.00
2023-04-25T11:03:50.315Z,1.20
2023-04-25T11:08:52.765Z,1.15
2023-04-25T11:13:55.122Z,1.20
2023-04-25T11:18:58.617Z,1.35
2023-04-25T11:24:01.888Z,1.38
2023-04-25T11:29:04.273Z,1.38
2023-04-25T11:34:06.459Z,0.98
2023-04-25T11:39:08.557Z,1.27
2023-04-25T11:44:10.785Z,0.90
2023-04-25T11:49:13.481Z,1.20
2023-04-25T11:54:16.299Z,0.88
2023-04-25T11:59:24.525Z,1.05
2023-04-25T12:04:26.995Z,1.48
2023-04-25T12:09:34.141Z,1.15
2023-04-25T12:14:36.879Z,1.10
2023-04-25T12:19:42.297Z,1.00
2023-04-25T12:24:45.889Z,1.13
2023-04-25T12:29:57.860Z,0.85
2023-04-25T12:34:59.936Z,1.20
2023-04-25T12:40:02.191Z,1.38
2023-04-25T12:45:04.515Z,1.00
2023-04-25T12:50:07.054Z,1.48
2023-04-25T12:55:09.310Z,1.05
2023-04-25T13:00:15.619Z,0.85
2023-04-25T13:05:17.706Z,1.00
2023-04-25T13:10:19.898Z,0.90
2023-04-25T13:15:22.875Z,1.00
2023-04-25T13:20:24.957Z,0.98
2023-04-25T13:25:27.068Z,1.10
2023-04-25T13:30:29.403Z,1.10
2023-04-25T13:35:31.836Z,1.20
2023-04-25T13:40:34.030Z,1.10
2023-04-25T13:45:36.379Z,1.20
2023-04-25T13:50:38.659Z,1.17
2023-04-25T13:55:40.787Z,1.10
2023-04-25T14:00:44.429Z,1.10
2023-04-25T14:05:46.622Z,0.90
2023-04-25T14:10:48.663Z,1.40
2023-04-25T14:15:51.486Z,1.30
2023-04-25T14:20:53.602Z,1.00
2023-04-25T14:25:55.839Z,0.95
2023-04-25T14:30:57.867Z,1.30
2023-04-25T14:36:00.120Z,1.15
2023-04-25T14:41:02.272Z,1.02
2023-04-25T14:46:04.413Z,1.23
2023-04-25T14:51:06.625Z,1.48
2023-04-25T14:56:09.704Z,1.40
2023-04-25T15:01:12.487Z,1.08
2023-04-25T15:06:15.090Z,0.95
2023-04-25T15:11:17.339Z,1.60
2023-04-25T15:16:19.469Z,1.40
2023-04-25T15:21:22.564Z,1.92
2023-04-25T15:26:24.669Z,1.30
2023-04-25T15:31:26.984Z,1.25
2023-04-25T15:36:29.131Z,1.85
2023-04-25T15:41:31.191Z,1.48
2023-04-25T15:46:33.312Z,1.42
2023-04-25T15:51:35.856Z,1.40
2023-04-25T15:56:37.934Z,1.33
2023-04-25T16:01:40.403Z,1.35
2023-04-25T16:06:42.476Z,1.30
2023-04-25T16:11:44.546Z,1.10
2023-04-25T16:16:46.904Z,1.30
2023-04-25T16:21:49.332Z,1.17
2023-04-25T16:26:51.477Z,1.30
2023-04-25T16:31:53.618Z,1.00
2023-04-25T16:36:56.728Z,1.30
2023-04-25T16:41:58.963Z,1.20
2023-04-25T16:47:01.436Z,1.00
2023-04-25T16:52:03.833Z,1.20
2023-04-25T16:57:06.960Z,0.90
2023-04-25T17:02:12.884Z,1.08
2023-04-25T17:07:15.945Z,1.00
2023-04-25T17:12:19.711Z,1.23
2023-04-25T17:17:21.790Z,1.50
2023-04-25T17:22:24.477Z,1.42
2023-04-25T17:27:26.769Z,1.60
2023-04-25T17:32:28.888Z,1.73
2023-04-25T17:37:31.661Z,1.38
2023-04-25T17:42:33.815Z,1.15
2023-04-25T17:47:36.058Z,1.42
2023-04-25T17:52:38.545Z,1.95
2023-04-25T17:57:40.740Z,1.40
2023-04-25T18:02:45.367Z,1.42
2023-04-25T18:07:47.537Z,1.13
2023-04-25T18:12:50.678Z,1.52
2023-04-25T18:17:52.790Z,1.67
2023-04-25T18:22:54.890Z,2.13
2023-04-25T18:27:57.433Z,1.52
2023-04-25T18:32:59.591Z,1.73
2023-04-25T18:38:01.621Z,1.55
2023-04-25T18:43:03.823Z,1.73
2023-04-25T18:48:05.924Z,1.40
2023-04-25T18:53:08.553Z,1.60
2023-04-25T18:58:10.529Z,1.67
2023-04-25T19:03:12.751Z,1.58
2023-04-25T19:08:14.939Z,1.85
2023-04-25T19:13:20.820Z,1.90
2023-04-25T19:18:23.120Z,1.77
2023-04-25T19:23:26.258Z,1.80
2023-04-25T19:28:29.743Z,2.85
2023-04-25T19:33:31.738Z,2.28
2023-04-25T19:38:33.751Z,3.15
2023-04-25T19:43:35.896Z,2.40
2023-04-25T19:48:38.112Z,2.38
2023-04-25T19:53:40.135Z,2.40
2023-04-25T19:58:42.806Z,2.45
2023-04-25T20:03:45.377Z,2.78
2023-04-25T20:08:47.555Z,2.22
2023-04-25T20:13:50.112Z,2.90
2023-04-25T20:18:53.167Z,2.70
2023-04-25T20:23:56.180Z,2.97
2023-04-25T20:28:58.580Z,3.58
2023-04-25T20:34:01.028Z,3.42
2023-04-25T20:39:04.495Z,3.28
2023-04-25T20:44:11.543Z,3.20
2023-04-25T20:49:13.594Z,3.63
2023-04-25T20:54:15.669Z,3.42
2023-04-25T20:59:17.683Z,3.72
2023-04-25T21:04:20.917Z,4.20
2023-04-25T21:09:23.051Z,3.70
2023-04-25T21:14:25.775Z,3.42
2023-04-25T21:19:27.938Z,3.97
2023-04-25T21:24:32.756Z,4.07
2023-04-25T21:29:34.821Z,4.45
2023-04-25T21:34:36.931Z,4.22
2023-04-25T21:39:38.915Z,4.78
2023-04-25T21:44:41.070Z,4.60
2023-04-25T21:49:43.162Z,4.20
2023-04-25T21:54:45.511Z,3.97
2023-04-25T21:59:48.144Z,4.25
2023-04-25T22:04:50.647Z,4.72
2023-04-25T22:09:55.383Z,4.32
2023-04-25T22:14:58.320Z,4.55
2023-04-25T22:20:02.521Z,4.53
2023-04-25T22:25:04.888Z,4.25
2023-04-25T22:30:12.715Z,4.15
2023-04-25T22:35:14.785Z,4.70
2023-04-25T22:40:16.816Z,4.22
2023-04-25T22:45:18.966Z,4.78
2023-04-25T22:50:21.077Z,4.55
2023-04-25T22:55:23.297Z,4.45
2023-04-25T23:00:28.961Z,4.40
2023-04-25T23:05:31.591Z,4.43
2023-04-25T23:10:33.612Z,4.55
2023-04-25T23:15:35.769Z,3.92
2023-04-25T23:20:37.853Z,4.60
2023-04-25T23:25:40.185Z,4.30
2023-04-25T23:30:42.293Z,3.95
2023-04-25T23:35:44.380Z,4.00
2023-04-25T23:40:47.066Z,4.20
2023-04-25T23:45:49.413Z,3.83
2023-04-25T23:50:51.731Z,4.30
2023-04-25T23:55:54.820Z,3.83
